createdAt,value
2022-12-24T00:00:39.087Z,27672.53
2022-12-24T00:01:39.048Z,27672.53
2022-12-24T00:02:39.102Z,27672.53
2022-12-24T00:03:39.326Z,27672.53
2022-12-24T00:04:39.026Z,27672.53
2022-12-24T00:05:38.988Z,27672.53
2022-12-24T00:06:38.992Z,27672.53
2022-12-24T00:07:38.977Z,27672.53
2022-12-24T00:08:38.967Z,27672.53
2022-12-24T00:09:38.971Z,27672.53
2022-12-24T00:10:38.945Z,27672.53
2022-12-24T00:11:38.934Z,27672.53
2022-12-24T00:12:38.958Z,27672.53
2022-12-24T00:13:38.914Z,27672.53
2022-12-24T00:14:38.924Z,27672.53
2022-12-24T00:15:38.887Z,27672.53
2022-12-24T00:16:38.969Z,27672.53
2022-12-24T00:17:38.871Z,27672.53
2022-12-24T00:18:45.423Z,27672.53
2022-12-24T00:19:38.878Z,27672.53
2022-12-24T00:20:38.843Z,27672.53
2022-12-24T00:21:38.841Z,27672.53
2022-12-24T00:22:38.820Z,27672.53
2022-12-24T00:23:38.845Z,27672.53
2022-12-24T00:24:38.840Z,27672.53
2022-12-24T00:25:38.805Z,27672.53
2022-12-24T00:26:38.787Z,27672.53
2022-12-24T00:27:38.781Z,27672.53
2022-12-24T00:28:38.752Z,27672.53
2022-12-24T00:29:38.758Z,27672.53
2022-12-24T00:30:38.807Z,27672.53
2022-12-24T00:31:38.717Z,27672.53
2022-12-24T00:32:38.714Z,27672.53
2022-12-24T00:33:38.745Z,27672.53
2022-12-24T00:34:38.781Z,27672.53
2022-12-24T00:35:38.697Z,27672.53
2022-12-24T00:36:38.690Z,27672.53
2022-12-24T00:37:38.656Z,27672.53
2022-12-24T00:38:38.690Z,27672.53
2022-12-24T00:39:38.640Z,27672.53
2022-12-24T00:40:38.655Z,27672.53
2022-12-24T00:41:38.611Z,27672.53
2022-12-24T00:42:38.608Z,27672.53
2022-12-24T00:43:38.594Z,27672.53
2022-12-24T00:44:38.595Z,27672.53
2022-12-24T00:45:38.614Z,27672.53
2022-12-24T00:46:38.700Z,27672.53
2022-12-24T00:47:38.550Z,27672.53
2022-12-24T00:48:38.551Z,27672.53
2022-12-24T00:49:38.540Z,27672.53
2022-12-24T00:50:38.553Z,27672.53
2022-12-24T00:51:38.608Z,27672.53
2022-12-24T00:52:38.502Z,27672.53
2022-12-24T00:53:38.487Z,27672.53
2022-12-24T00:54:38.485Z,27672.53
2022-12-24T00:55:38.492Z,27672.53
2022-12-24T00:56:38.465Z,27672.53
2022-12-24T00:57:38.443Z,27672.53
2022-12-24T00:58:38.441Z,27672.53
2022-12-24T00:59:38.427Z,27672.53
2022-12-24T01:00:38.453Z,27672.53
2022-12-24T01:01:38.537Z,27672.53
2022-12-24T01:02:38.695Z,27672.53
2022-12-24T01:03:38.468Z,27672.53
2022-12-24T01:04:38.375Z,27672.53
2022-12-24T01:05:38.390Z,27672.53
2022-12-24T01:06:38.348Z,27672.53
2022-12-24T01:07:38.367Z,27672.53
2022-12-24T01:08:38.330Z,27672.53
2022-12-24T01:09:38.325Z,27672.53
2022-12-24T01:10:38.330Z,27672.53
2022-12-24T01:11:38.294Z,27672.53
2022-12-24T01:12:38.353Z,992.72
2022-12-24T01:13:38.347Z,992.73
2022-12-24T01:14:38.328Z,992.75
2022-12-24T01:15:38.386Z,992.75
2022-12-24T01:16:38.303Z,992.81
2022-12-24T01:17:44.779Z,992.80
2022-12-24T01:18:44.288Z,992.83
2022-12-24T01:19:44.765Z,992.81
2022-12-24T01:20:38.281Z,992.89
2022-12-24T01:21:38.259Z,992.87
2022-12-24T01:22:38.249Z,992.93
2022-12-24T01:23:38.250Z,992.96
2022-12-24T01:24:38.216Z,992.95
2022-12-24T01:25:38.232Z,992.99
2022-12-24T01:26:38.197Z,993.01
2022-12-24T01:27:38.190Z,992.99
2022-12-24T01:28:38.173Z,993.05
2022-12-24T01:29:38.157Z,993.07
2022-12-24T01:30:38.180Z,993.12
2022-12-24T01:31:38.187Z,993.10
2022-12-24T01:32:38.132Z,993.14
2022-12-24T01:33:38.123Z,993.16
2022-12-24T01:34:38.118Z,993.17
2022-12-24T01:35:38.119Z,993.21
2022-12-24T01:36:38.091Z,993.18
2022-12-24T01:37:38.075Z,993.23
2022-12-24T01:38:38.067Z,993.27
2022-12-24T01:39:38.055Z,993.32
2022-12-24T01:40:38.080Z,993.30
2022-12-24T01:41:38.031Z,993.29
2022-12-24T01:42:38.048Z,993.32
2022-12-24T01:43:38.012Z,993.33
2022-12-24T01:44:38.004Z,993.37
2022-12-24T01:45:38.026Z,993.38
2022-12-24T01:46:38.072Z,993.37
2022-12-24T01:47:37.987Z,993.37
2022-12-24T01:48:37.961Z,993.29
2022-12-24T01:49:37.951Z,993.43
2022-12-24T01:50:37.936Z,993.37
2022-12-24T01:51:37.945Z,993.40
2022-12-24T01:52:37.930Z,993.39
2022-12-24T01:53:37.903Z,993.43
2022-12-24T01:54:37.917Z,993.48
2022-12-24T01:55:37.893Z,993.54
2022-12-24T01:56:37.901Z,993.51
2022-12-24T01:57:37.868Z,993.50
2022-12-24T01:58:37.855Z,993.53
2022-12-24T01:59:37.845Z,993.62
2022-12-24T02:00:37.833Z,993.58
2022-12-24T02:01:37.998Z,993.59
2022-12-24T02:02:38.067Z,993.61
2022-12-24T02:03:37.881Z,993.65
2022-12-24T02:04:37.801Z,993.68
2022-12-24T02:05:37.822Z,993.63
2022-12-24T02:06:37.791Z,993.62
2022-12-24T02:07:37.757Z,993.69
2022-12-24T02:08:37.750Z,993.67
2022-12-24T02:09:37.731Z,993.64
2022-12-24T02:10:37.723Z,993.70
2022-12-24T02:11:37.737Z,993.71
2022-12-24T02:12:37.715Z,993.69
2022-12-24T02:13:37.692Z,993.70
2022-12-24T02:14:37.686Z,993.75
2022-12-24T02:15:37.707Z,993.70
2022-12-24T02:16:37.723Z,993.70
2022-12-24T02:17:37.646Z,993.74
2022-12-24T02:18:37.676Z,993.74
2022-12-24T02:19:37.629Z,993.79
2022-12-24T02:20:37.643Z,993.79
2022-12-24T02:21:37.644Z,993.83
2022-12-24T02:22:37.600Z,993.88
2022-12-24T02:23:37.593Z,993.85
2022-12-24T02:24:37.591Z,993.88
2022-12-24T02:25:37.583Z,993.82
2022-12-24T02:26:37.582Z,993.88
2022-12-24T02:27:37.550Z,993.94
2022-12-24T02:28:37.531Z,993.96
2022-12-24T02:29:37.527Z,993.98
2022-12-24T02:30:37.533Z,993.98
2022-12-24T02:31:37.594Z,994.04
2022-12-24T02:32:37.499Z,994.08
2022-12-24T02:33:37.487Z,994.05
2022-12-24T02:34:37.481Z,994.13
2022-12-24T02:35:37.486Z,994.10
2022-12-24T02:36:37.475Z,994.10
2022-12-24T02:37:37.449Z,994.14
2022-12-24T02:38:37.436Z,994.13
2022-12-24T02:39:37.432Z,994.15
2022-12-24T02:40:37.423Z,994.10
2022-12-24T02:41:37.442Z,994.15
2022-12-24T02:42:37.388Z,994.15
2022-12-24T02:43:37.384Z,994.18
2022-12-24T02:44:37.460Z,994.17
2022-12-24T02:45:37.360Z,994.21
2022-12-24T02:46:37.400Z,994.21
2022-12-24T02:47:37.348Z,994.23
2022-12-24T02:48:37.322Z,994.28
2022-12-24T02:49:37.318Z,994.27
2022-12-24T02:50:37.318Z,994.28
2022-12-24T02:51:37.332Z,994.22
2022-12-24T02:52:37.276Z,994.26
2022-12-24T02:53:37.304Z,994.27
2022-12-24T02:54:37.259Z,994.26
2022-12-24T02:55:37.260Z,994.27
2022-12-24T02:56:37.290Z,994.31
2022-12-24T02:57:37.284Z,994.33
2022-12-24T02:58:37.230Z,994.36
2022-12-24T02:59:37.234Z,994.35
2022-12-24T03:00:37.223Z,994.34
2022-12-24T03:01:37.366Z,994.36
2022-12-24T03:02:37.333Z,994.34
2022-12-24T03:03:37.179Z,994.39
2022-12-24T03:04:37.159Z,994.38
2022-12-24T03:05:37.156Z,994.43
2022-12-24T03:06:37.170Z,994.41
2022-12-24T03:07:37.147Z,994.39
2022-12-24T03:08:37.122Z,994.39
2022-12-24T03:09:37.105Z,994.41
2022-12-24T03:10:37.093Z,994.45
2022-12-24T03:11:37.096Z,994.42
2022-12-24T03:12:37.095Z,994.48
2022-12-24T03:13:37.074Z,994.42
2022-12-24T03:14:37.058Z,994.41
2022-12-24T03:15:37.049Z,994.49
2022-12-24T03:16:37.089Z,994.46
2022-12-24T03:17:37.053Z,994.47
2022-12-24T03:18:37.019Z,994.47
2022-12-24T03:19:37.010Z,994.54
2022-12-24T03:20:37.004Z,994.50
2022-12-24T03:21:36.986Z,994.53
2022-12-24T03:22:36.996Z,994.54
2022-12-24T03:23:36.972Z,994.59
2022-12-24T03:24:36.955Z,994.58
2022-12-24T03:25:36.940Z,994.58
2022-12-24T03:26:36.931Z,994.58
2022-12-24T03:27:36.963Z,994.57
2022-12-24T03:28:36.910Z,994.55
2022-12-24T03:29:36.900Z,994.55
2022-12-24T03:30:36.883Z,994.57
2022-12-24T03:31:36.925Z,994.62
2022-12-24T03:32:36.885Z,994.63
2022-12-24T03:33:36.861Z,994.63
2022-12-24T03:34:36.845Z,994.64
2022-12-24T03:35:36.852Z,994.71
2022-12-24T03:36:36.829Z,994.66
2022-12-24T03:37:36.839Z,994.66
2022-12-24T03:38:36.822Z,994.69
2022-12-24T03:39:43.283Z,994.67
2022-12-24T03:40:43.279Z,994.71
2022-12-24T03:41:36.779Z,994.75
2022-12-24T03:42:44.577Z,994.76
2022-12-24T03:43:36.761Z,994.81
2022-12-24T03:44:36.735Z,994.75
2022-12-24T03:45:36.773Z,994.78
2022-12-24T03:46:36.722Z,994.81
2022-12-24T03:47:36.747Z,994.78
2022-12-24T03:48:36.746Z,994.82
2022-12-24T03:49:36.711Z,994.82
2022-12-24T03:50:36.678Z,994.82
2022-12-24T03:51:36.681Z,994.83
2022-12-24T03:52:36.700Z,994.84
2022-12-24T03:53:36.655Z,994.82
2022-12-24T03:54:36.639Z,994.82
2022-12-24T03:55:36.644Z,994.85
2022-12-24T03:56:36.623Z,994.83
2022-12-24T03:57:36.634Z,994.89
2022-12-24T03:58:36.602Z,994.83
2022-12-24T03:59:36.587Z,994.90
2022-12-24T04:00:36.672Z,994.88
2022-12-24T04:01:36.703Z,994.92
2022-12-24T04:02:36.748Z,994.93
2022-12-24T04:03:36.547Z,994.93
2022-12-24T04:04:36.537Z,994.96
2022-12-24T04:05:36.528Z,994.90
2022-12-24T04:06:36.515Z,994.93
2022-12-24T04:07:36.535Z,994.92
2022-12-24T04:08:36.495Z,994.99
2022-12-24T04:09:36.485Z,994.94
2022-12-24T04:10:36.501Z,994.94
2022-12-24T04:11:36.479Z,994.94
2022-12-24T04:12:36.509Z,994.98
2022-12-24T04:13:36.461Z,994.96
2022-12-24T04:14:36.428Z,995.00
2022-12-24T04:15:36.430Z,994.95
2022-12-24T04:16:36.477Z,994.98
2022-12-24T04:17:36.419Z,995.02
2022-12-24T04:18:36.446Z,995.04
2022-12-24T04:19:36.390Z,995.03
2022-12-24T04:20:36.401Z,995.04
2022-12-24T04:21:36.361Z,995.07
2022-12-24T04:22:36.373Z,995.06
2022-12-24T04:23:36.355Z,995.08
2022-12-24T04:24:36.329Z,995.08
2022-12-24T04:25:36.321Z,995.12
2022-12-24T04:26:36.314Z,995.10
2022-12-24T04:27:36.336Z,995.09
2022-12-24T04:28:36.286Z,995.13
2022-12-24T04:29:36.276Z,995.10
2022-12-24T04:30:36.262Z,995.16
2022-12-24T04:31:36.334Z,995.17
2022-12-24T04:32:36.274Z,995.18
2022-12-24T04:33:36.241Z,995.21
2022-12-24T04:34:36.221Z,995.22
2022-12-24T04:35:36.213Z,995.26
2022-12-24T04:36:36.201Z,995.26
2022-12-24T04:37:36.217Z,995.28
2022-12-24T04:38:36.186Z,995.27
2022-12-24T04:39:36.185Z,995.29
2022-12-24T04:40:36.172Z,995.31
2022-12-24T04:41:36.153Z,995.32
2022-12-24T04:42:36.147Z,995.33
2022-12-24T04:43:36.153Z,995.34
2022-12-24T04:44:36.123Z,995.29
2022-12-24T04:45:36.146Z,995.29
2022-12-24T04:46:36.112Z,995.35
2022-12-24T04:47:36.094Z,995.33
2022-12-24T04:48:36.111Z,995.34
2022-12-24T04:49:36.069Z,995.36
2022-12-24T04:50:36.051Z,995.39
2022-12-24T04:51:36.049Z,995.41
2022-12-24T04:52:36.052Z,995.44
2022-12-24T04:53:36.057Z,995.47
2022-12-24T04:54:36.013Z,995.48
2022-12-24T04:55:36.017Z,995.48
2022-12-24T04:56:36.026Z,995.51
2022-12-24T04:57:35.995Z,995.47
2022-12-24T04:58:36.013Z,995.49
2022-12-24T04:59:35.967Z,995.47
2022-12-24T05:00:35.958Z,995.46
2022-12-24T05:01:36.080Z,995.42
2022-12-24T05:02:36.193Z,995.39
2022-12-24T05:03:36.027Z,995.41
2022-12-24T05:04:35.922Z,995.40
2022-12-24T05:05:35.915Z,995.41
2022-12-24T05:06:35.898Z,995.44
2022-12-24T05:07:35.902Z,995.48
2022-12-24T05:08:35.896Z,995.50
2022-12-24T05:09:35.873Z,995.50
2022-12-24T05:10:35.850Z,995.51
2022-12-24T05:11:35.844Z,995.54
2022-12-24T05:12:35.834Z,995.53
2022-12-24T05:13:42.491Z,995.56
2022-12-24T05:14:35.815Z,995.57
2022-12-24T05:15:35.814Z,995.60
2022-12-24T05:16:35.822Z,995.59
2022-12-24T05:17:35.803Z,995.63
2022-12-24T05:18:35.800Z,995.54
2022-12-24T05:19:35.759Z,995.51
2022-12-24T05:20:35.746Z,995.56
2022-12-24T05:21:35.747Z,995.57
2022-12-24T05:22:43.203Z,995.58
2022-12-24T05:23:43.613Z,995.60
2022-12-24T05:24:35.706Z,995.62
2022-12-24T05:25:35.694Z,995.58
2022-12-24T05:26:35.687Z,995.55
2022-12-24T05:27:35.714Z,995.57
2022-12-24T05:28:35.691Z,995.60
2022-12-24T05:29:35.658Z,995.63
2022-12-24T05:30:35.684Z,995.63
2022-12-24T05:31:35.666Z,995.63
2022-12-24T05:32:35.621Z,995.68
2022-12-24T05:33:35.643Z,995.71
2022-12-24T05:34:35.619Z,995.69
2022-12-24T05:35:35.603Z,995.68
2022-12-24T05:36:35.602Z,995.69
2022-12-24T05:37:35.583Z,995.66
2022-12-24T05:38:35.589Z,995.67
2022-12-24T05:39:35.584Z,995.63
2022-12-24T05:40:35.575Z,995.63
2022-12-24T05:41:35.575Z,995.62
2022-12-24T05:42:35.550Z,995.63
2022-12-24T05:43:35.560Z,995.64
2022-12-24T05:44:35.540Z,995.63
2022-12-24T05:45:35.527Z,995.66
2022-12-24T05:46:35.539Z,995.65
2022-12-24T05:47:41.198Z,995.67
2022-12-24T05:48:35.480Z,995.66
2022-12-24T05:49:35.484Z,995.67
2022-12-24T05:50:35.448Z,995.66
2022-12-24T05:51:35.430Z,995.67
2022-12-24T05:52:35.423Z,995.64
2022-12-24T05:53:35.417Z,995.67
2022-12-24T05:54:35.413Z,995.68
2022-12-24T05:55:35.385Z,995.71
2022-12-24T05:56:35.384Z,995.76
2022-12-24T05:57:35.376Z,995.76
2022-12-24T05:58:35.367Z,995.74
2022-12-24T05:59:35.373Z,995.73
2022-12-24T06:00:35.339Z,995.74
2022-12-24T06:01:41.868Z,995.74
2022-12-24T06:02:35.404Z,995.73
2022-12-24T06:03:41.813Z,995.75
2022-12-24T06:04:35.427Z,995.77
2022-12-24T06:05:35.288Z,995.80
2022-12-24T06:06:35.284Z,995.79
2022-12-24T06:07:35.278Z,995.79
2022-12-24T06:08:35.281Z,995.82
2022-12-24T06:09:35.282Z,995.84
2022-12-24T06:10:35.226Z,995.86
2022-12-24T06:11:35.231Z,995.83
2022-12-24T06:12:35.224Z,995.86
2022-12-24T06:13:35.242Z,995.89
2022-12-24T06:14:35.214Z,995.89
2022-12-24T06:15:35.273Z,995.92
2022-12-24T06:16:35.242Z,995.95
2022-12-24T06:17:35.155Z,995.93
2022-12-24T06:18:35.164Z,995.93
2022-12-24T06:19:35.162Z,995.92
2022-12-24T06:20:35.120Z,995.92
2022-12-24T06:21:35.128Z,995.91
2022-12-24T06:22:35.145Z,995.94
2022-12-24T06:23:35.098Z,995.95
2022-12-24T06:24:35.115Z,995.94
2022-12-24T06:25:35.076Z,995.93
2022-12-24T06:26:35.066Z,995.95
2022-12-24T06:27:35.058Z,995.89
2022-12-24T06:28:35.051Z,995.88
2022-12-24T06:29:35.064Z,995.88
2022-12-24T06:30:35.023Z,995.87
2022-12-24T06:31:35.050Z,995.89
2022-12-24T06:32:35.000Z,995.92
2022-12-24T06:33:34.986Z,995.94
2022-12-24T06:34:35.011Z,995.89
2022-12-24T06:35:34.969Z,995.91
2022-12-24T06:36:34.961Z,995.91
2022-12-24T06:37:34.942Z,995.94
2022-12-24T06:38:34.936Z,995.90
2022-12-24T06:39:34.951Z,995.91
2022-12-24T06:40:34.918Z,995.90
2022-12-24T06:41:34.900Z,995.95
2022-12-24T06:42:34.893Z,995.96
2022-12-24T06:43:34.878Z,995.99
2022-12-24T06:44:34.903Z,995.99
2022-12-24T06:45:34.860Z,996.00
2022-12-24T06:46:34.883Z,996.03
2022-12-24T06:47:34.863Z,996.02
2022-12-24T06:48:34.836Z,996.07
2022-12-24T06:49:34.839Z,996.07
2022-12-24T06:50:34.819Z,996.06
2022-12-24T06:51:34.802Z,996.10
2022-12-24T06:52:34.832Z,996.13
2022-12-24T06:53:34.786Z,996.14
2022-12-24T06:54:34.801Z,996.16
2022-12-24T06:55:34.767Z,996.14
2022-12-24T06:56:34.752Z,996.16
2022-12-24T06:57:34.746Z,996.19
2022-12-24T06:58:34.743Z,996.20
2022-12-24T06:59:34.739Z,996.21
2022-12-24T07:00:34.734Z,996.22
2022-12-24T07:01:34.787Z,996.24
2022-12-24T07:02:34.839Z,996.26
2022-12-24T07:03:34.726Z,996.27
2022-12-24T07:04:34.658Z,996.31
2022-12-24T07:05:34.618Z,996.30
2022-12-24T07:06:34.582Z,996.27
2022-12-24T07:07:34.576Z,996.25
2022-12-24T07:08:34.563Z,996.30
2022-12-24T07:09:34.549Z,996.30
2022-12-24T07:10:34.559Z,996.33
2022-12-24T07:11:34.530Z,996.37
2022-12-24T07:12:34.539Z,996.38
2022-12-24T07:13:34.570Z,996.46
2022-12-24T07:14:34.504Z,996.43
2022-12-24T07:15:34.521Z,996.41
2022-12-24T07:16:34.642Z,996.42
2022-12-24T07:17:34.637Z,996.44
2022-12-24T07:18:34.462Z,996.44
2022-12-24T07:19:34.542Z,996.44
2022-12-24T07:20:34.456Z,996.42
2022-12-24T07:21:34.447Z,996.40
2022-12-24T07:22:34.417Z,996.47
2022-12-24T07:23:34.431Z,996.44
2022-12-24T07:24:34.406Z,996.43
2022-12-24T07:25:34.420Z,996.48
2022-12-24T07:26:34.372Z,996.51
2022-12-24T07:27:34.364Z,996.52
2022-12-24T07:28:34.371Z,996.51
2022-12-24T07:29:34.340Z,996.58
2022-12-24T07:30:34.382Z,996.57
2022-12-24T07:31:34.399Z,996.60
2022-12-24T07:32:34.346Z,996.53
2022-12-24T07:33:34.313Z,996.55
2022-12-24T07:34:34.322Z,996.53
2022-12-24T07:35:34.307Z,996.54
2022-12-24T07:36:34.276Z,996.59
2022-12-24T07:37:34.251Z,996.59
2022-12-24T07:38:34.272Z,996.62
2022-12-24T07:39:34.233Z,996.63
2022-12-24T07:40:34.248Z,996.66
2022-12-24T07:41:39.804Z,996.72
2022-12-24T07:42:34.221Z,996.71
2022-12-24T07:43:34.193Z,996.70
2022-12-24T07:44:34.192Z,996.73
2022-12-24T07:45:34.220Z,996.73
2022-12-24T07:46:34.177Z,996.74
2022-12-24T07:47:34.152Z,996.71
2022-12-24T07:48:34.164Z,996.75
2022-12-24T07:49:34.128Z,996.73
2022-12-24T07:50:41.663Z,996.73
2022-12-24T07:51:40.588Z,996.73
2022-12-24T07:52:40.087Z,996.75
2022-12-24T07:53:34.082Z,996.76
2022-12-24T07:54:34.079Z,996.73
2022-12-24T07:55:34.089Z,996.73
2022-12-24T07:56:34.064Z,996.77
2022-12-24T07:57:34.063Z,996.76
2022-12-24T07:58:34.049Z,996.82
2022-12-24T07:59:34.027Z,996.81
2022-12-24T08:00:34.046Z,996.83
2022-12-24T08:01:34.130Z,996.83
2022-12-24T08:02:34.146Z,996.84
2022-12-24T08:03:34.168Z,996.88
2022-12-24T08:04:33.984Z,996.91
2022-12-24T08:05:33.987Z,996.98
2022-12-24T08:06:33.977Z,997.00
2022-12-24T08:07:33.958Z,996.99
2022-12-24T08:08:33.945Z,997.04
2022-12-24T08:09:33.923Z,997.05
2022-12-24T08:10:33.931Z,997.07
2022-12-24T08:11:33.901Z,997.12
2022-12-24T08:12:33.899Z,997.19
2022-12-24T08:13:33.896Z,997.20
2022-12-24T08:14:33.875Z,997.24
2022-12-24T08:15:33.883Z,997.21
2022-12-24T08:16:33.952Z,997.22
2022-12-24T08:17:33.839Z,997.19
2022-12-24T08:18:33.844Z,997.18
2022-12-24T08:19:33.818Z,997.21
2022-12-24T08:20:33.837Z,997.20
2022-12-24T08:21:33.802Z,997.27
2022-12-24T08:22:33.798Z,997.27
2022-12-24T08:23:33.780Z,997.32
2022-12-24T08:24:40.255Z,997.33
2022-12-24T08:25:41.742Z,997.33
2022-12-24T08:26:40.230Z,997.39
2022-12-24T08:27:33.732Z,997.36
2022-12-24T08:28:33.740Z,997.38
2022-12-24T08:29:33.713Z,997.39
2022-12-24T08:30:33.751Z,997.42
2022-12-24T08:31:33.752Z,997.46
2022-12-24T08:32:33.700Z,997.45
2022-12-24T08:33:33.686Z,997.46
2022-12-24T08:34:33.666Z,997.48
2022-12-24T08:35:33.669Z,997.48
2022-12-24T08:36:33.640Z,997.48
2022-12-24T08:37:33.628Z,997.50
2022-12-24T08:38:33.622Z,997.52
2022-12-24T08:39:33.611Z,997.52
2022-12-24T08:40:33.625Z,997.58
2022-12-24T08:41:33.601Z,997.54
2022-12-24T08:42:33.646Z,997.54
2022-12-24T08:43:33.574Z,997.53
2022-12-24T08:44:33.562Z,997.58
2022-12-24T08:45:39.990Z,997.58
2022-12-24T08:46:33.718Z,997.58
2022-12-24T08:47:33.524Z,997.63
2022-12-24T08:48:33.539Z,997.62
2022-12-24T08:49:33.499Z,997.64
2022-12-24T08:50:33.500Z,997.66
2022-12-24T08:51:33.497Z,997.73
2022-12-24T08:52:33.486Z,997.73
2022-12-24T08:53:33.457Z,997.73
2022-12-24T08:54:33.457Z,997.75
2022-12-24T08:55:33.434Z,997.71
2022-12-24T08:56:33.451Z,997.76
2022-12-24T08:57:33.423Z,997.76
2022-12-24T08:58:33.409Z,997.79
2022-12-24T08:59:33.413Z,997.83
2022-12-24T09:00:33.389Z,997.78
2022-12-24T09:01:33.560Z,997.83
2022-12-24T09:02:33.568Z,997.82
2022-12-24T09:03:33.439Z,997.84
2022-12-24T09:04:33.345Z,997.86
2022-12-24T09:05:33.328Z,997.88
2022-12-24T09:06:33.367Z,997.88
2022-12-24T09:07:33.312Z,997.90
2022-12-24T09:08:33.325Z,997.89
2022-12-24T09:09:37.916Z,997.98
2022-12-24T09:10:33.294Z,998.04
2022-12-24T09:11:33.301Z,998.06
2022-12-24T09:12:33.257Z,998.02
2022-12-24T09:13:33.245Z,998.10
2022-12-24T09:14:33.254Z,998.10
2022-12-24T09:15:33.231Z,998.15
2022-12-24T09:16:33.287Z,998.08
2022-12-24T09:17:33.219Z,998.11
2022-12-24T09:18:33.198Z,998.20
2022-12-24T09:19:33.182Z,998.22
2022-12-24T09:20:33.191Z,998.29
2022-12-24T09:21:33.182Z,998.22
2022-12-24T09:22:33.155Z,998.26
2022-12-24T09:23:33.143Z,998.23
2022-12-24T09:24:33.144Z,998.22
2022-12-24T09:25:33.122Z,998.28
2022-12-24T09:26:33.140Z,998.30
2022-12-24T09:27:33.106Z,998.29
2022-12-24T09:28:33.093Z,998.33
2022-12-24T09:29:33.076Z,998.37
2022-12-24T09:30:33.079Z,998.36
2022-12-24T09:31:33.196Z,998.42
2022-12-24T09:32:33.050Z,998.45
2022-12-24T09:33:33.042Z,998.48
2022-12-24T09:34:33.032Z,998.47
2022-12-24T09:35:33.035Z,998.53
2022-12-24T09:36:33.028Z,998.54
2022-12-24T09:37:33.035Z,998.58
2022-12-24T09:38:33.001Z,998.57
2022-12-24T09:39:32.974Z,998.66
2022-12-24T09:40:32.967Z,998.69
2022-12-24T09:41:32.970Z,998.68
2022-12-24T09:42:32.940Z,998.64
2022-12-24T09:43:32.929Z,998.65
2022-12-24T09:44:32.928Z,998.66
2022-12-24T09:45:33.007Z,998.64
2022-12-24T09:46:33.018Z,998.64
2022-12-24T09:47:32.891Z,998.66
2022-12-24T09:48:32.878Z,998.66
2022-12-24T09:49:32.863Z,998.67
2022-12-24T09:50:32.859Z,998.61
2022-12-24T09:51:32.886Z,998.70
2022-12-24T09:52:32.836Z,998.70
2022-12-24T09:53:32.835Z,998.70
2022-12-24T09:54:32.838Z,998.69
2022-12-24T09:55:32.796Z,998.64
2022-12-24T09:56:32.807Z,998.63
2022-12-24T09:57:32.812Z,998.64
2022-12-24T09:58:32.774Z,998.69
2022-12-24T09:59:32.766Z,998.69
2022-12-24T10:00:32.751Z,998.77
2022-12-24T10:01:32.868Z,998.74
2022-12-24T10:02:32.928Z,998.81
2022-12-24T10:03:32.782Z,998.75
2022-12-24T10:04:32.709Z,998.83
2022-12-24T10:05:32.704Z,998.80
2022-12-24T10:06:32.688Z,998.82
2022-12-24T10:07:32.690Z,998.80
2022-12-24T10:08:32.666Z,998.80
2022-12-24T10:09:32.652Z,998.80
2022-12-24T10:10:32.655Z,998.78
2022-12-24T10:11:32.684Z,998.77
2022-12-24T10:12:32.661Z,998.75
2022-12-24T10:13:32.618Z,998.72
2022-12-24T10:14:32.605Z,998.74
2022-12-24T10:15:39.076Z,998.73
2022-12-24T10:16:32.635Z,998.72
2022-12-24T10:17:40.264Z,998.81
2022-12-24T10:18:32.555Z,998.79
2022-12-24T10:19:32.541Z,998.80
2022-12-24T10:20:32.531Z,998.78
2022-12-24T10:21:32.546Z,998.81
2022-12-24T10:22:32.543Z,998.78
2022-12-24T10:23:32.504Z,998.82
2022-12-24T10:24:32.505Z,998.81
2022-12-24T10:25:32.486Z,998.86
2022-12-24T10:26:32.470Z,998.87
2022-12-24T10:27:32.489Z,998.88
2022-12-24T10:28:32.449Z,998.85
2022-12-24T10:29:32.435Z,998.89
2022-12-24T10:30:32.440Z,998.88
2022-12-24T10:31:32.440Z,998.84
2022-12-24T10:32:32.430Z,998.88
2022-12-24T10:33:32.405Z,998.90
2022-12-24T10:34:32.385Z,998.91
2022-12-24T10:35:32.395Z,998.92
2022-12-24T10:36:32.360Z,998.93
2022-12-24T10:37:32.381Z,998.93
2022-12-24T10:38:32.341Z,998.94
2022-12-24T10:39:32.343Z,998.97
2022-12-24T10:40:32.326Z,998.98
2022-12-24T10:41:32.798Z,998.95
2022-12-24T10:42:32.323Z,998.96
2022-12-24T10:43:32.305Z,998.95
2022-12-24T10:44:32.273Z,998.94
2022-12-24T10:45:32.276Z,998.96
2022-12-24T10:46:32.311Z,998.99
2022-12-24T10:47:32.291Z,999.00
2022-12-24T10:48:38.715Z,999.02
2022-12-24T10:49:32.233Z,999.03
2022-12-24T10:50:38.691Z,999.06
2022-12-24T10:51:38.696Z,999.07
2022-12-24T10:52:32.232Z,999.05
2022-12-24T10:53:32.191Z,999.03
2022-12-24T10:54:32.169Z,999.07
2022-12-24T10:55:32.175Z,999.11
2022-12-24T10:56:32.160Z,999.10
2022-12-24T10:57:32.171Z,999.06
2022-12-24T10:58:32.125Z,999.16
2022-12-24T10:59:32.131Z,999.10
2022-12-24T11:00:36.148Z,999.09
2022-12-24T11:01:32.196Z,999.05
2022-12-24T11:02:32.329Z,999.03
2022-12-24T11:03:32.219Z,999.06
2022-12-24T11:04:32.081Z,999.08
2022-12-24T11:05:32.057Z,999.05
2022-12-24T11:06:32.044Z,999.04
2022-12-24T11:07:32.035Z,999.01
2022-12-24T11:08:32.047Z,999.05
2022-12-24T11:09:32.018Z,999.02
2022-12-24T11:10:31.999Z,999.05
2022-12-24T11:11:31.998Z,999.00
2022-12-24T11:12:31.996Z,999.01
2022-12-24T11:13:39.750Z,998.96
2022-12-24T11:14:31.962Z,998.95
2022-12-24T11:15:32.009Z,998.97
2022-12-24T11:16:32.123Z,998.91
2022-12-24T11:17:31.938Z,998.94
2022-12-24T11:18:31.944Z,998.90
2022-12-24T11:19:31.984Z,998.90
2022-12-24T11:20:31.909Z,998.84
2022-12-24T11:21:31.909Z,998.90
2022-12-24T11:22:39.856Z,998.86
2022-12-24T11:23:31.876Z,998.84
2022-12-24T11:24:31.848Z,998.87
2022-12-24T11:25:31.853Z,998.88
2022-12-24T11:26:31.827Z,998.90
2022-12-24T11:27:31.827Z,998.88
2022-12-24T11:28:31.828Z,998.92
2022-12-24T11:29:31.797Z,998.91
2022-12-24T11:30:32.096Z,998.95
2022-12-24T11:31:31.909Z,998.95
2022-12-24T11:32:31.761Z,999.00
2022-12-24T11:33:31.815Z,999.02
2022-12-24T11:34:31.748Z,999.04
2022-12-24T11:35:31.728Z,999.05
2022-12-24T11:36:31.720Z,999.09
2022-12-24T11:37:31.714Z,999.04
2022-12-24T11:38:31.729Z,999.05
2022-12-24T11:39:31.688Z,998.98
2022-12-24T11:40:31.677Z,998.97
2022-12-24T11:41:31.676Z,999.00
2022-12-24T11:42:31.663Z,999.02
2022-12-24T11:43:31.677Z,998.96
2022-12-24T11:44:31.634Z,998.92
2022-12-24T11:45:31.630Z,998.95
2022-12-24T11:46:31.702Z,998.96
2022-12-24T11:47:31.624Z,998.95
2022-12-24T11:48:31.639Z,999.00
2022-12-24T11:49:31.585Z,999.03
2022-12-24T11:50:31.567Z,999.09
2022-12-24T11:51:31.570Z,999.09
2022-12-24T11:52:31.561Z,999.09
2022-12-24T11:53:31.572Z,999.07
2022-12-24T11:54:31.523Z,999.07
2022-12-24T11:55:31.530Z,999.05
2022-12-24T11:56:31.505Z,999.03
2022-12-24T11:57:31.511Z,999.04
2022-12-24T11:58:31.518Z,999.05
2022-12-24T11:59:31.494Z,999.04
2022-12-24T12:00:31.483Z,999.05
2022-12-24T12:01:31.569Z,999.07
2022-12-24T12:02:31.484Z,999.07
2022-12-24T12:03:31.485Z,999.13
2022-12-24T12:04:31.418Z,999.10
2022-12-24T12:05:31.408Z,999.14
2022-12-24T12:06:31.416Z,999.17
2022-12-24T12:07:31.389Z,999.24
2022-12-24T12:08:31.398Z,999.25
2022-12-24T12:09:31.436Z,999.25
2022-12-24T12:10:31.359Z,999.27
2022-12-24T12:11:31.367Z,999.24
2022-12-24T12:12:31.345Z,999.21
2022-12-24T12:13:31.353Z,999.22
2022-12-24T12:14:31.331Z,999.22
2022-12-24T12:15:31.312Z,999.25
2022-12-24T12:16:31.329Z,999.26
2022-12-24T12:17:31.283Z,999.25
2022-12-24T12:18:31.309Z,999.27
2022-12-24T12:19:31.261Z,999.25
2022-12-24T12:20:31.254Z,999.27
2022-12-24T12:21:31.239Z,999.25
2022-12-24T12:22:31.228Z,999.25
2022-12-24T12:23:31.243Z,999.26
2022-12-24T12:24:32.516Z,999.25